KPOB/POB METAR and TAF weather

Enter ICAO airport designator
Station Type Date Time Source
KPOB METAR 2021/01/20 18:56 UTC NOAA

KPOB 201856Z AUTO 34011KT 10SM CLR 14/M04 A3008 RMK AO2 SLP189 T01411041 $


Station Type Date Time Source
KPOB Decoded METAR 2021/01/20 18:56 UTC NOAA

Pope Air Force Base, NC, United States (KPOB) 35-10N 079-02W 61M
Jan 20, 2021 - 01:56 PM EST / 2021.01.20 1856 UTC
Wind: from the NNW (340 degrees) at 13 MPH (11 KT):0
Visibility: 10 mile(s):0
Sky conditions: clear
Temperature: 57.4 F (14.1 C)
Dew Point: 24.6 F (-4.1 C)
Relative Humidity: 28%
Pressure (altimeter): 30.08 in. Hg (1018 hPa)
ob: KPOB 201856Z AUTO 34011KT 10SM CLR 14/M04 A3008 RMK AO2 SLP189 T01411041
cycle: 19

Station Type Date Time Source
KPOB TAF 2021/01/20 18:57 UTC NOAA

TAF KPOB 201830Z 2018/2124 31012G20KT 9999 FEW250 510003 QNH3009NS
BECMG 2021/2022 32009KT 9999 SCT250 QNH3005INS
BECMG 2108/2109 22006KT 9999 BKN100 BKN200 QNH3000INS
BECMG 2115/2116 25012G18KT 9999 SCT030 BKN060 OVC100 QNH2985INS
BECMG 2121/2122 25007KT 9999 FEW020 BKN040 QNH2981INS TX15/2020Z TN02/2112Z

Example: see airport list